createdAt,value
2023-03-27T04:05:26.243Z,-85
2023-03-27T04:07:54.528Z,-84
2023-03-27T04:10:23.395Z,-83
2023-03-27T04:12:51.924Z,-83
2023-03-27T04:15:20.362Z,-82
2023-03-27T04:20:34.862Z,-79
2023-03-27T04:23:04.244Z,-79
2023-03-27T04:25:32.890Z,-79
2023-03-27T04:28:02.398Z,-78
2023-03-27T04:30:31.000Z,-78
2023-03-27T04:33:00.335Z,-79
2023-03-27T04:35:29.193Z,-78
2023-03-27T04:38:01.805Z,-79
2023-03-27T04:40:30.266Z,-78
2023-03-27T04:42:58.735Z,-78
2023-03-27T04:45:27.641Z,-78
2023-03-27T04:47:56.569Z,-78
2023-03-27T04:50:25.039Z,-78
2023-03-27T04:52:58.975Z,-78
2023-03-27T04:55:28.970Z,-78
2023-03-27T04:58:00.464Z,-78
2023-03-27T05:00:29.423Z,-79
2023-03-27T05:02:58.334Z,-78
2023-03-27T05:05:27.007Z,-78
2023-03-27T05:07:55.841Z,-78
2023-03-27T05:10:24.400Z,-79
2023-03-27T05:12:57.867Z,-79
2023-03-27T05:15:27.749Z,-78
2023-03-27T05:17:56.297Z,-77
2023-03-27T05:20:25.321Z,-78
2023-03-27T05:22:55.101Z,-77
2023-03-27T05:25:24.721Z,-77
2023-03-27T05:27:54.939Z,-77
2023-03-27T05:30:24.656Z,-77
2023-03-27T05:32:54.544Z,-79
2023-03-27T05:35:24.872Z,-78
2023-03-27T05:37:54.448Z,-77
2023-03-27T05:40:26.936Z,-77
2023-03-27T05:42:57.916Z,-78
2023-03-27T05:45:27.088Z,-79
2023-03-27T05:47:57.581Z,-79
2023-03-27T05:50:28.517Z,-78
2023-03-27T05:52:58.744Z,-78
2023-03-27T05:55:28.050Z,-78
2023-03-27T05:57:58.042Z,-79
2023-03-27T06:00:27.586Z,-79
2023-03-27T06:02:57.326Z,-78
2023-03-27T06:05:27.923Z,-78
2023-03-27T06:07:59.096Z,-79
2023-03-27T06:10:28.860Z,-79
2023-03-27T06:13:03.218Z,-79
2023-03-27T06:15:33.058Z,-78
2023-03-27T06:18:01.792Z,-79
2023-03-27T06:20:30.953Z,-77
2023-03-27T06:23:01.633Z,-77
2023-03-27T06:25:32.211Z,-75
2023-03-27T06:28:02.558Z,-77
2023-03-27T06:30:32.312Z,-78
2023-03-27T06:33:01.459Z,-78
2023-03-27T06:35:32.074Z,-79
2023-03-27T06:38:03.165Z,-78
2023-03-27T06:40:32.120Z,-80
2023-03-27T06:43:03.919Z,-80
2023-03-27T06:45:33.689Z,-80
2023-03-27T06:48:15.517Z,-81
2023-03-27T06:50:48.482Z,-83
2023-03-27T06:55:49.895Z,-84
2023-03-27T06:58:20.159Z,-82
2023-03-27T07:00:49.940Z,-82
2023-03-27T07:03:19.416Z,-82
2023-03-27T07:05:49.077Z,-83
2023-03-27T07:08:24.821Z,-82
2023-03-27T07:13:28.221Z,-82
2023-03-27T07:15:56.757Z,-82
2023-03-27T07:18:25.583Z,-83
2023-03-27T07:20:53.899Z,-82
2023-03-27T07:23:22.622Z,-82
2023-03-27T07:25:52.581Z,-83
2023-03-27T07:28:21.071Z,-82
2023-03-27T07:30:51.698Z,-83
2023-03-27T07:33:24.743Z,-82
2023-03-27T07:35:53.516Z,-82
2023-03-27T07:38:22.335Z,-83
2023-03-27T07:40:50.778Z,-84
2023-03-27T07:43:20.548Z,-83
2023-03-27T07:45:50.961Z,-83
2023-03-27T07:48:19.360Z,-83
2023-03-27T07:50:48.181Z,-83
2023-03-27T07:53:33.884Z,-81
2023-03-27T07:56:03.778Z,-83
2023-03-27T07:58:32.419Z,-82
2023-03-27T08:01:03.701Z,-83
2023-03-27T08:03:32.708Z,-81
2023-03-27T08:06:01.839Z,-81
2023-03-27T08:08:31.014Z,-82
2023-03-27T08:11:00.231Z,-82
2023-03-27T08:13:28.592Z,-83
2023-03-27T08:16:06.262Z,-83
2023-03-27T08:18:35.276Z,-82
2023-03-27T08:21:06.261Z,-83
2023-03-27T08:23:34.721Z,-81
2023-03-27T08:26:03.872Z,-82
2023-03-27T08:28:33.362Z,-82
2023-03-27T08:31:03.389Z,-82
2023-03-27T08:33:33.686Z,-84
2023-03-27T08:36:02.423Z,-83
2023-03-27T08:38:33.448Z,-83
2023-03-27T08:41:03.901Z,-82
2023-03-27T08:43:37.312Z,-84
2023-03-27T08:46:09.030Z,-85
2023-03-27T08:48:41.527Z,-84
2023-03-27T08:51:12.474Z,-86
2023-03-27T08:53:44.068Z,-85
2023-03-27T08:56:15.925Z,-87
2023-03-27T08:58:45.147Z,-86
2023-03-27T09:01:19.521Z,-86
2023-03-27T09:03:56.075Z,-86
2023-03-27T09:06:28.373Z,-86
2023-03-27T09:09:04.978Z,-84
2023-03-27T09:11:40.002Z,-85
2023-03-27T09:14:15.944Z,-85
2023-03-27T09:16:50.093Z,-85
2023-03-27T09:19:30.725Z,-85
2023-03-27T09:22:03.104Z,-85
2023-03-27T09:24:35.341Z,-83
2023-03-27T09:27:14.343Z,-85
2023-03-27T09:29:45.204Z,-85
2023-03-27T09:32:16.512Z,-85
2023-03-27T09:34:48.306Z,-85
2023-03-27T09:37:18.159Z,-84
2023-03-27T09:39:49.851Z,-84
2023-03-27T09:42:22.202Z,-84
2023-03-27T09:44:54.478Z,-85
2023-03-27T09:47:25.984Z,-84
2023-03-27T09:49:58.388Z,-84
2023-03-27T09:52:36.266Z,-84
2023-03-27T09:55:05.166Z,-84
2023-03-27T09:57:35.134Z,-83
2023-03-27T10:00:13.575Z,-84
2023-03-27T10:02:42.126Z,-85
2023-03-27T10:05:18.874Z,-85
2023-03-27T10:07:47.574Z,-84
2023-03-27T10:10:18.221Z,-85
2023-03-27T10:12:57.456Z,-85
2023-03-27T10:15:37.273Z,-85
2023-03-27T10:18:08.551Z,-87
2023-03-27T10:20:38.633Z,-84
2023-03-27T10:23:10.250Z,-87
2023-03-27T10:25:40.196Z,-86
2023-03-27T10:28:11.995Z,-85
2023-03-27T10:30:41.813Z,-86
2023-03-27T10:33:10.697Z,-85
2023-03-27T10:35:43.987Z,-86
2023-03-27T10:38:15.952Z,-85
2023-03-27T10:40:46.085Z,-86
2023-03-27T10:43:30.024Z,-86
2023-03-27T10:46:05.446Z,-85
2023-03-27T10:48:43.513Z,-87
2023-03-27T10:51:45.485Z,-86
2023-03-27T10:54:19.108Z,-86
2023-03-27T10:56:59.579Z,-86
2023-03-27T10:59:41.502Z,-86
2023-03-27T11:02:16.975Z,-86
2023-03-27T11:04:49.229Z,-84
2023-03-27T11:07:24.284Z,-85
2023-03-27T11:09:59.392Z,-86
2023-03-27T11:12:29.633Z,-83
2023-03-27T11:15:02.589Z,-84
2023-03-27T11:17:33.947Z,-83
2023-03-27T11:20:08.911Z,-84
2023-03-27T11:22:42.456Z,-83
2023-03-27T11:25:21.370Z,-84
2023-03-27T11:27:56.029Z,-82
2023-03-27T11:30:36.328Z,-83
2023-03-27T11:33:25.936Z,-82
2023-03-27T11:35:58.617Z,-84
2023-03-27T11:38:33.449Z,-84
2023-03-27T11:41:01.978Z,-86
2023-03-27T11:43:30.588Z,-85
2023-03-27T11:46:08.501Z,-85
2023-03-27T11:48:58.606Z,-84
2023-03-27T11:51:38.226Z,-86
2023-03-27T11:54:27.251Z,-86
2023-03-27T11:56:58.189Z,-87
2023-03-27T11:59:58.670Z,-85
2023-03-27T12:02:49.395Z,-85
2023-03-27T12:05:26.982Z,-85
2023-03-27T12:08:00.716Z,-85
2023-03-27T12:10:33.766Z,-87
2023-03-27T12:13:41.908Z,-84
2023-03-27T12:16:37.338Z,-87
2023-03-27T12:19:28.567Z,-86
2023-03-27T12:22:22.491Z,-85
2023-03-27T12:25:17.033Z,-85
2023-03-27T12:27:57.972Z,-85
2023-03-27T12:30:34.247Z,-85
2023-03-27T12:33:36.753Z,-85
2023-03-27T12:36:08.225Z,-85
2023-03-27T12:38:40.889Z,-85
2023-03-27T12:41:21.420Z,-85
2023-03-27T12:43:57.877Z,-86
2023-03-27T12:46:35.626Z,-85
2023-03-27T12:49:34.166Z,-86
2023-03-27T12:52:10.281Z,-85
2023-03-27T12:54:39.926Z,-86
2023-03-27T12:57:16.342Z,-85
2023-03-27T12:59:54.434Z,-86
2023-03-27T13:02:45.792Z,-85
2023-03-27T13:05:49.014Z,-85
2023-03-27T13:08:41.467Z,-85
2023-03-27T13:11:29.448Z,-85
2023-03-27T13:14:29.459Z,-85
2023-03-27T13:17:16.478Z,-86
2023-03-27T13:19:54.917Z,-85
2023-03-27T13:22:33.138Z,-85
2023-03-27T13:25:20.552Z,-85
2023-03-27T13:28:02.538Z,-86
2023-03-27T13:30:46.730Z,-85
2023-03-27T13:33:26.560Z,-86
2023-03-27T13:36:07.123Z,-85
2023-03-27T13:38:51.711Z,-86
2023-03-27T13:41:56.569Z,-86
2023-03-27T13:44:34.227Z,-85
2023-03-27T13:47:09.904Z,-85
2023-03-27T13:49:47.224Z,-86
2023-03-27T13:52:40.570Z,-85
2023-03-27T13:55:39.637Z,-85
2023-03-27T13:58:31.412Z,-85
2023-03-27T14:01:11.934Z,-85
2023-03-27T14:03:58.049Z,-86
2023-03-27T14:06:56.369Z,-86
2023-03-27T14:09:44.237Z,-86
2023-03-27T14:12:18.805Z,-86
2023-03-27T14:15:00.857Z,-86
2023-03-27T14:17:58.230Z,-86
2023-03-27T14:20:27.608Z,-85
2023-03-27T14:23:00.262Z,-86
2023-03-27T14:28:32.298Z,-86
2023-03-27T14:31:03.051Z,-86
2023-03-27T14:33:32.388Z,-86
2023-03-27T14:36:04.234Z,-86
2023-03-27T14:38:35.786Z,-85
2023-03-27T14:41:06.184Z,-85
2023-03-27T14:43:34.823Z,-85
2023-03-27T14:46:06.542Z,-86
2023-03-27T14:48:37.497Z,-86
2023-03-27T14:51:10.944Z,-86
2023-03-27T14:53:44.749Z,-85
2023-03-27T14:56:24.138Z,-85
2023-03-27T14:58:54.398Z,-85
2023-03-27T15:01:23.878Z,-86
2023-03-27T15:03:53.560Z,-87
2023-03-27T15:06:26.407Z,-87
2023-03-27T15:09:00.057Z,-85
2023-03-27T15:11:37.535Z,-84
2023-03-27T15:14:06.181Z,-84
2023-03-27T15:16:36.103Z,-84
2023-03-27T15:19:10.260Z,-84
2023-03-27T15:21:44.675Z,-83
2023-03-27T15:24:18.525Z,-83
2023-03-27T15:26:50.633Z,-84
2023-03-27T15:29:24.835Z,-84
2023-03-27T15:31:54.241Z,-84
2023-03-27T15:34:24.735Z,-86
2023-03-27T15:36:58.310Z,-85
2023-03-27T15:39:28.983Z,-83
2023-03-27T15:42:07.638Z,-83
2023-03-27T15:44:36.214Z,-84
2023-03-27T15:47:05.016Z,-85
2023-03-27T15:49:37.172Z,-85
2023-03-27T15:52:30.357Z,-85
2023-03-27T15:55:02.004Z,-85
2023-03-27T15:57:32.292Z,-85
2023-03-27T16:00:08.542Z,-85
2023-03-27T16:02:37.607Z,-85
2023-03-27T16:05:07.591Z,-86
2023-03-27T16:07:45.496Z,-86
2023-03-27T16:10:16.332Z,-86
2023-03-27T16:12:52.135Z,-84
2023-03-27T16:15:29.829Z,-87
2023-03-27T16:18:00.192Z,-83
2023-03-27T16:20:35.514Z,-84
2023-03-27T16:23:04.691Z,-85
2023-03-27T16:25:35.011Z,-83
2023-03-27T16:28:04.121Z,-84
2023-03-27T16:30:35.500Z,-83
2023-03-27T16:33:04.324Z,-84
2023-03-27T16:35:34.179Z,-84
2023-03-27T16:38:03.883Z,-84
2023-03-27T16:40:34.099Z,-84
2023-03-27T16:43:02.605Z,-84
2023-03-27T16:45:31.251Z,-85
2023-03-27T16:48:00.015Z,-84
2023-03-27T16:50:30.887Z,-83
2023-03-27T16:53:01.752Z,-84
2023-03-27T16:55:30.611Z,-85
2023-03-27T16:58:01.580Z,-84
2023-03-27T17:00:30.987Z,-84
2023-03-27T17:03:07.436Z,-85
2023-03-27T17:05:36.770Z,-83
2023-03-27T17:08:07.432Z,-84
2023-03-27T17:10:38.802Z,-84
2023-03-27T17:13:08.955Z,-84
2023-03-27T17:15:38.212Z,-86
2023-03-27T17:18:06.606Z,-85
2023-03-27T17:20:35.971Z,-84
2023-03-27T17:23:04.184Z,-84
2023-03-27T17:25:32.452Z,-84
2023-03-27T17:28:02.772Z,-85
2023-03-27T17:30:39.788Z,-82
2023-03-27T17:33:12.017Z,-83
2023-03-27T17:35:44.090Z,-85
2023-03-27T17:38:15.253Z,-84
2023-03-27T17:40:45.145Z,-84
2023-03-27T17:43:13.573Z,-83
2023-03-27T17:45:44.057Z,-85
2023-03-27T17:48:13.458Z,-84
2023-03-27T17:50:41.967Z,-83
2023-03-27T17:53:10.285Z,-83
2023-03-27T17:55:39.048Z,-84
2023-03-27T17:58:10.094Z,-84
2023-03-27T18:00:39.354Z,-83
2023-03-27T18:03:12.514Z,-85
2023-03-27T18:05:43.439Z,-84
2023-03-27T18:08:13.410Z,-84
2023-03-27T18:10:45.574Z,-84
2023-03-27T18:13:13.739Z,-84
2023-03-27T18:15:43.009Z,-84
2023-03-27T18:18:12.857Z,-83
2023-03-27T18:20:41.513Z,-84
2023-03-27T18:23:10.176Z,-82
2023-03-27T18:25:42.278Z,-85
2023-03-27T18:28:13.360Z,-83
2023-03-27T18:30:49.874Z,-85
2023-03-27T18:33:20.052Z,-83
2023-03-27T18:35:58.472Z,-83
2023-03-27T18:38:28.187Z,-84
2023-03-27T18:41:00.095Z,-84
2023-03-27T18:43:30.293Z,-84
2023-03-27T18:46:04.912Z,-84
2023-03-27T18:48:36.471Z,-85
2023-03-27T18:51:06.459Z,-84
2023-03-27T18:53:34.665Z,-83
2023-03-27T18:56:03.396Z,-84
2023-03-27T18:58:31.908Z,-83
2023-03-27T19:01:00.959Z,-83
2023-03-27T19:03:35.481Z,-84
2023-03-27T19:06:07.602Z,-84
2023-03-27T19:08:38.223Z,-83
2023-03-27T19:11:07.390Z,-84
2023-03-27T19:13:38.013Z,-83
2023-03-27T19:16:14.736Z,-83
2023-03-27T19:18:44.444Z,-84
2023-03-27T19:21:14.906Z,-85
2023-03-27T19:23:43.411Z,-85
2023-03-27T19:26:14.676Z,-85
2023-03-27T19:28:44.105Z,-85
2023-03-27T19:31:15.117Z,-83
2023-03-27T19:33:44.621Z,-84
2023-03-27T19:36:15.163Z,-84
2023-03-27T19:38:44.054Z,-83
2023-03-27T19:41:12.966Z,-84
2023-03-27T19:43:41.742Z,-83
2023-03-27T19:48:43.869Z,-85
2023-03-27T19:51:14.182Z,-83
2023-03-27T19:53:42.650Z,-84
2023-03-27T19:56:11.946Z,-83
2023-03-27T19:58:40.372Z,-84
2023-03-27T20:01:09.356Z,-84
2023-03-27T20:03:40.056Z,-83
2023-03-27T20:06:18.958Z,-84
2023-03-27T20:08:49.514Z,-84
2023-03-27T20:11:17.824Z,-84
2023-03-27T20:13:56.210Z,-83
2023-03-27T20:16:27.683Z,-83
2023-03-27T20:19:05.164Z,-84
2023-03-27T20:21:36.281Z,-83
2023-03-27T20:24:10.459Z,-84
2023-03-27T20:26:40.442Z,-83
2023-03-27T20:29:16.764Z,-84
2023-03-27T20:31:45.845Z,-84
2023-03-27T20:34:14.705Z,-84
2023-03-27T20:36:43.505Z,-84
2023-03-27T20:39:14.866Z,-84
2023-03-27T20:41:43.276Z,-84
2023-03-27T20:44:15.979Z,-85
2023-03-27T20:46:48.064Z,-85
2023-03-27T20:51:58.037Z,-84
2023-03-27T20:54:29.280Z,-84
2023-03-27T20:57:00.099Z,-85
2023-03-27T20:59:28.763Z,-84
2023-03-27T21:01:57.271Z,-84
2023-03-27T21:04:26.261Z,-84
2023-03-27T21:06:55.294Z,-84
2023-03-27T21:09:24.066Z,-84
2023-03-27T21:11:55.464Z,-84
2023-03-27T21:14:25.658Z,-84
2023-03-27T21:16:54.437Z,-84
2023-03-27T21:19:24.728Z,-84
2023-03-27T21:21:55.415Z,-84
2023-03-27T21:24:23.803Z,-85
2023-03-27T21:26:54.057Z,-83
2023-03-27T21:29:25.643Z,-84
2023-03-27T21:31:54.910Z,-84
2023-03-27T21:34:23.378Z,-84
2023-03-27T21:36:51.915Z,-84
2023-03-27T21:39:20.963Z,-84
2023-03-27T21:41:49.215Z,-84
2023-03-27T21:44:19.340Z,-86
2023-03-27T21:46:48.166Z,-85
